Time;durP1;ratioP1;P1;durP2;ratioP2;P2;SDS_P1;SDS_P2;PMS_P1;PMS_P2;Temp;Humidity;BMP_temperature;BMP_pressure;BME280_temperature;BME280_humidity;BME280_pressure;Samples;Min_cycle;Max_cycle;Signal;HPM_P1;HPM_P2
2022/10/06 00:01:32;;;;;;;4.90;1.97;;;;;;;-145.69;100.00;72397.44;5054330;28;20231;-80
2022/10/06 00:03:59;;;;;;;3.00;1.80;;;;;;;-145.69;100.00;72425.31;5054125;28;20207;-79
2022/10/06 00:06:25;;;;;;;5.77;2.07;;;;;;;-145.69;100.00;72385.50;5053896;28;20200;-80
2022/10/06 00:08:52;;;;;;;9.43;1.90;;;;;;;-145.69;100.00;72401.44;5053930;28;20203;-80
2022/10/06 00:11:19;;;;;;;3.83;1.90;;;;;;;-145.69;100.00;72417.34;5053964;28;20289;-80
2022/10/06 00:13:46;;;;;;;2.47;1.90;;;;;;;-145.69;100.00;72437.25;5073407;28;20201;-79
2022/10/06 00:16:16;;;;;;;3.23;2.00;;;;;;;-145.69;100.00;72451.19;5073823;28;20195;-80
2022/10/06 00:18:43;;;;;;;6.10;2.10;;;;;;;-145.69;100.00;72423.31;5073479;28;20284;-80
2022/10/06 00:21:10;;;;;;;7.90;2.37;;;;;;;-145.69;100.00;72407.41;5073501;28;20219;-80
2022/10/06 00:23:36;;;;;;;5.07;1.90;;;;;;;-145.69;100.00;72437.25;5072908;28;20673;-80
2022/10/06 00:26:03;;;;;;;18.53;2.60;;;;;;;-145.69;100.00;72437.25;5054004;28;20207;-80
2022/10/06 00:28:29;;;;;;;8.93;2.20;;;;;;;-145.69;100.00;72423.31;5055515;28;20206;-80
2022/10/06 00:31:01;;;;;;;5.77;2.30;;;;;;;-145.69;100.00;72443.22;5053532;28;20201;-80
2022/10/06 00:33:28;;;;;;;4.20;2.10;;;;;;;-145.69;100.00;72415.38;5053726;28;20203;-80
2022/10/06 00:35:57;;;;;;;5.80;1.90;;;;;;;-145.69;100.00;72441.25;5057619;28;20230;-80
2022/10/06 00:38:24;;;;;;;4.47;2.00;;;;;;;-145.69;100.00;72425.31;5073804;28;20248;-80
2022/10/06 00:40:51;;;;;;;11.07;2.30;;;;;;;-145.69;100.00;72407.41;5073626;28;20194;-80
2022/10/06 00:43:44;;;;;;;12.60;2.07;;;;;;;-145.69;100.00;72395.47;5073645;28;20203;-80
2022/10/06 00:46:17;;;;;;;7.20;2.10;;;;;;;-145.69;100.00;72401.44;5072013;28;20430;-79
2022/10/06 00:48:46;;;;;;;2.67;1.63;;;;;;;-145.69;100.00;72385.50;5062969;28;20199;-80
2022/10/06 00:51:14;;;;;;;3.90;1.90;;;;;;;-145.69;100.00;72391.47;5053221;28;20199;-79
2022/10/06 00:53:41;;;;;;;9.67;2.17;;;;;;;-145.69;100.00;72389.50;5053155;28;20203;-80
2022/10/06 00:56:08;;;;;;;4.93;2.13;;;;;;;-145.69;100.00;72405.41;5053080;28;20691;-80
2022/10/06 00:58:34;;;;;;;7.83;2.17;;;;;;;-145.69;100.00;72405.41;5053089;28;20206;-79
2022/10/06 01:01:02;;;;;;;4.30;1.77;;;;;;;-145.69;100.00;72423.31;5064419;28;20222;-79
2022/10/06 01:03:33;;;;;;;9.87;2.43;;;;;;;-145.69;100.00;72389.50;5073003;28;20194;-79
2022/10/06 01:06:02;;;;;;;4.03;1.43;;;;;;;-145.69;100.00;72365.59;5073177;28;20201;-80
2022/10/06 01:08:30;;;;;;;8.83;1.63;;;;;;;-145.69;100.00;72379.53;5072988;28;20203;-80
2022/10/06 01:10:57;;;;;;;6.07;1.87;;;;;;;-145.69;100.00;72341.72;5069060;28;20285;-80
2022/10/06 01:13:24;;;;;;;4.40;1.90;;;;;;;-145.69;100.00;72363.63;5059228;28;20576;-79
2022/10/06 01:15:56;;;;;;;12.23;2.07;;;;;;;-145.69;100.00;72357.66;5072722;28;20203;-80
2022/10/06 01:18:25;;;;;;;11.60;1.93;;;;;;;-145.69;100.00;72353.66;5072820;28;20230;-80
2022/10/06 01:20:58;;;;;;;4.87;1.80;;;;;;;-145.69;100.00;72349.69;5073061;28;20206;-79
2022/10/06 01:23:27;;;;;;;13.47;1.73;;;;;;;-145.69;100.00;72357.66;5072993;28;20203;-79
2022/10/06 01:25:54;;;;;;;4.17;1.80;;;;;;;-145.69;100.00;72311.88;5058603;28;20196;-77
2022/10/06 01:28:20;;;;;;;5.10;1.50;;;;;;;-145.69;100.00;72309.88;5052888;28;20211;-79
2022/10/06 01:30:51;;;;;;;7.13;1.60;;;;;;;-145.69;100.00;72315.84;5052762;28;20235;-80
2022/10/06 01:33:18;;;;;;;8.37;2.10;;;;;;;-145.69;100.00;72313.84;5052799;28;20204;-80
2022/10/06 01:35:47;;;;;;;7.37;1.70;;;;;;;-145.69;100.00;72345.69;5052585;28;20207;-80
2022/10/06 01:38:14;;;;;;;13.67;2.40;;;;;;;-145.69;100.00;72345.69;5066693;28;20285;-80
2022/10/06 01:40:42;;;;;;;7.90;1.87;;;;;;;-145.69;100.00;72335.75;5072560;28;20203;-80
2022/10/06 01:43:09;;;;;;;7.80;1.90;;;;;;;-145.69;100.00;72345.69;5071600;28;20458;-80
2022/10/06 01:45:35;;;;;;;4.53;1.77;;;;;;;-145.69;100.00;72365.59;5072558;28;20557;-80
2022/10/06 01:48:02;;;;;;;8.70;2.00;;;;;;;-145.69;100.00;72381.53;5072646;28;20201;-80
2022/10/06 01:50:28;;;;;;;10.60;2.20;;;;;;;-145.69;100.00;72383.53;5053828;28;20196;-80
2022/10/06 01:52:56;;;;;;;5.90;1.97;;;;;;;-145.69;100.00;72399.44;5056579;28;20238;-80
2022/10/06 01:55:22;;;;;;;4.50;1.70;;;;;;;-145.69;100.00;72377.53;5056364;28;20211;-80
2022/10/06 01:57:51;;;;;;;4.70;1.80;;;;;;;-145.69;100.00;72397.44;5056554;28;20203;-80
2022/10/06 02:00:18;;;;;;;4.60;2.03;;;;;;;-145.69;100.00;72425.31;5058243;28;20203;-79
2022/10/06 02:02:44;;;;;;;5.13;1.80;;;;;;;-145.69;100.00;72449.19;5076145;28;20231;-79
2022/10/06 02:05:13;;;;;;;5.73;1.77;;;;;;;-145.69;100.00;72449.19;5076497;28;20202;-80
2022/10/06 02:07:40;;;;;;;6.40;1.87;;;;;;;-145.69;100.00;72445.22;5072499;28;20206;-80
2022/10/06 02:10:07;;;;;;;7.97;1.80;;;;;;;-145.69;100.00;72469.09;5052279;28;20203;-80
2022/10/06 02:12:34;;;;;;;11.70;2.60;;;;;;;-145.69;100.00;72475.06;5056320;28;20290;-80
2022/10/06 02:15:02;;;;;;;7.00;2.10;;;;;;;-145.69;100.00;72481.03;5056234;28;20199;-80
2022/10/06 02:17:29;;;;;;;7.63;2.30;;;;;;;-145.69;100.00;72489.00;5042124;28;20469;-80
2022/10/06 02:19:55;;;;;;;4.63;1.90;;;;;;;-145.69;100.00;72510.91;5056261;28;20234;-80
2022/10/06 02:22:22;;;;;;;8.40;2.47;;;;;;;-145.69;100.00;72512.91;5076305;28;20313;-80
2022/10/06 02:24:48;;;;;;;8.10;2.77;;;;;;;-145.69;100.00;72498.97;5075995;28;20194;-80
2022/10/06 02:27:15;;;;;;;7.80;2.23;;;;;;;-145.69;100.00;72489.00;5076055;28;20234;-80
2022/10/06 02:29:43;;;;;;;7.13;2.50;;;;;;;-145.69;100.00;72479.06;5074959;28;20484;-81
2022/10/06 02:32:11;;;;;;;6.57;2.40;;;;;;;-145.69;100.00;72485.03;5063961;28;20288;-80
2022/10/06 02:34:38;;;;;;;6.60;2.00;;;;;;;-145.69;100.00;72493.00;5055906;28;20209;-80
2022/10/06 02:37:04;;;;;;;7.93;2.20;;;;;;;-145.69;100.00;72465.13;5056597;28;20261;-81
2022/10/06 02:39:31;;;;;;;12.20;2.47;;;;;;;-145.69;100.00;72457.16;5056607;28;20199;-81
2022/10/06 02:41:57;;;;;;;6.77;2.00;;;;;;;-145.69;100.00;72469.09;5056764;28;20230;-81
2022/10/06 02:44:24;;;;;;;7.53;2.20;;;;;;;-145.69;100.00;72461.13;5070554;28;20199;-80
2022/10/06 02:46:51;;;;;;;14.43;2.20;;;;;;;-145.69;100.00;72451.19;5075856;28;20230;-80
2022/10/06 02:49:19;;;;;;;4.70;2.17;;;;;;;-145.69;100.00;72461.13;5075977;28;20561;-80
2022/10/06 02:51:46;;;;;;;8.77;2.50;;;;;;;-145.69;100.00;72473.09;5075502;28;20286;-80
2022/10/06 02:54:12;;;;;;;3.40;2.10;;;;;;;-145.69;100.00;72463.13;5075872;28;20214;-80
2022/10/06 02:56:39;;;;;;;11.97;2.17;;;;;;;-145.69;100.00;72465.13;5060967;28;20239;-81
2022/10/06 02:59:05;;;;;;;6.10;1.93;;;;;;;-145.69;100.00;72467.13;5056571;28;20238;-81
2022/10/06 03:01:32;;;;;;;6.17;2.00;;;;;;;-145.69;100.00;72481.03;5057267;28;20200;-81
2022/10/06 03:03:59;;;;;;;7.67;2.43;;;;;;;-145.69;100.00;72477.06;5051808;28;20550;-79
2022/10/06 03:06:28;;;;;;;4.63;2.10;;;;;;;-145.69;100.00;72479.06;5055523;28;20203;-80
2022/10/06 03:08:57;;;;;;;5.90;2.20;;;;;;;-145.69;100.00;72487.00;5074839;28;20203;-81
2022/10/06 03:11:25;;;;;;;5.63;2.20;;;;;;;-145.69;100.00;72481.03;5075288;28;20244;-80
2022/10/06 03:13:53;;;;;;;5.70;2.33;;;;;;;-145.69;100.00;72481.03;5077141;28;20203;-81
2022/10/06 03:16:22;;;;;;;6.27;2.00;;;;;;;-145.69;100.00;72494.97;5076444;28;20209;-80
2022/10/06 03:18:50;;;;;;;9.10;2.13;;;;;;;-145.69;100.00;72496.97;5074861;28;20206;-80
2022/10/06 03:21:17;;;;;;;9.67;2.40;;;;;;;-145.69;100.00;72483.03;5035553;28;20211;-80
2022/10/06 03:23:46;;;;;;;9.40;2.57;;;;;;;-145.69;100.00;72520.84;5036477;28;20228;-81
2022/10/06 03:26:14;;;;;;;6.03;2.30;;;;;;;-145.69;100.00;72534.78;5035153;28;20215;-81
2022/10/06 03:28:41;;;;;;;10.40;2.40;;;;;;;-145.69;100.00;72540.75;5035053;28;20561;-80
2022/10/06 03:31:08;;;;;;;11.30;2.57;;;;;;;-145.69;100.00;72572.59;5038178;28;20202;-80
2022/10/06 03:33:34;;;;;;;6.17;2.60;;;;;;;-145.69;100.00;72568.63;5055461;28;20207;-80
2022/10/06 03:36:03;;;;;;;5.67;2.47;;;;;;;-145.69;100.00;72560.66;5055185;28;20207;-80
2022/10/06 03:38:31;;;;;;;14.07;2.83;;;;;;;-145.69;100.00;72574.59;5054911;28;20204;-80
2022/10/06 03:41:07;;;;;;;8.87;2.40;;;;;;;-145.69;100.00;72602.47;5054660;28;20210;-80
2022/10/06 03:43:35;;;;;;;8.33;2.40;;;;;;;-145.69;100.00;72634.31;5058097;28;20226;-80
2022/10/06 03:46:03;;;;;;;3.80;2.30;;;;;;;-145.69;100.00;72638.28;5075104;28;20221;-80
2022/10/06 03:48:32;;;;;;;7.40;2.73;;;;;;;-145.69;100.00;72636.31;5074450;28;20342;-80
2022/10/06 03:51:00;;;;;;;12.70;2.73;;;;;;;-145.69;100.00;72622.38;5074416;28;20287;-80
2022/10/06 03:53:28;;;;;;;7.90;2.90;;;;;;;-145.69;100.00;72612.41;5074480;28;20293;-81
2022/10/06 03:56:03;;;;;;;12.40;3.27;;;;;;;-145.69;100.00;72594.50;5071323;28;20222;-80
2022/10/06 03:58:33;;;;;;;5.37;2.60;;;;;;;-145.69;100.00;72614.41;5054521;28;20229;-80
2022/10/06 04:01:05;;;;;;;6.97;2.60;;;;;;;-145.69;100.00;72628.34;5053958;28;20213;-80
2022/10/06 04:03:32;;;;;;;6.77;3.10;;;;;;;-145.69;100.00;72634.31;5054964;28;20230;-80
2022/10/06 04:06:00;;;;;;;11.47;3.50;;;;;;;-145.69;100.00;72634.31;5055374;28;20203;-80
2022/10/06 04:08:28;;;;;;;11.10;3.43;;;;;;;-145.69;100.00;72642.28;5055900;28;20202;-79
2022/10/06 04:10:55;;;;;;;5.37;2.67;;;;;;;-145.69;100.00;72648.25;5073948;28;20209;-80
2022/10/06 04:13:22;;;;;;;6.33;3.00;;;;;;;-145.69;100.00;72646.25;5073988;28;20209;-79
2022/10/06 04:15:50;;;;;;;8.20;2.97;;;;;;;-145.69;100.00;72612.41;5073099;28;20205;-79
2022/10/06 04:18:17;;;;;;;16.00;3.20;;;;;;;-145.69;100.00;72612.41;5073652;28;20280;-80
2022/10/06 04:20:44;;;;;;;14.40;3.77;;;;;;;-145.69;100.00;72612.41;5070369;28;20196;-80
2022/10/06 04:23:11;;;;;;;10.20;3.27;;;;;;;-145.69;100.00;72624.34;5053477;28;20273;-79
2022/10/06 04:25:37;;;;;;;11.27;3.33;;;;;;;-145.69;100.00;72624.34;5053795;28;20199;-80
2022/10/06 04:28:04;;;;;;;6.20;3.03;;;;;;;-145.69;100.00;72648.25;5053856;28;20207;-80
2022/10/06 04:30:30;;;;;;;13.30;3.60;;;;;;;-145.69;100.00;72632.31;5053557;28;20695;-80
2022/10/06 04:32:58;;;;;;;11.53;3.60;;;;;;;-145.69;100.00;72632.31;5059147;28;20202;-81
2022/10/06 04:35:26;;;;;;;7.60;3.57;;;;;;;-145.69;100.00;72624.34;5074131;28;20297;-80
2022/10/06 04:37:53;;;;;;;15.03;4.20;;;;;;;-145.69;100.00;72612.41;5074354;28;20205;-80
2022/10/06 04:40:19;;;;;;;5.23;3.10;;;;;;;-145.69;100.00;72632.31;5074177;28;20238;-80
2022/10/06 04:42:46;;;;;;;6.73;3.00;;;;;;;-145.69;100.00;72630.31;5073537;28;20700;-80
2022/10/06 04:45:12;;;;;;;11.77;3.20;;;;;;;-145.69;100.00;72636.31;5066324;28;20203;-80
2022/10/06 04:47:39;;;;;;;6.57;2.47;;;;;;;-145.69;100.00;72634.31;5053290;28;20207;-80
2022/10/06 04:50:08;;;;;;;11.20;3.63;;;;;;;-145.69;100.00;72642.28;5053287;28;20242;-79
2022/10/06 04:52:34;;;;;;;11.50;3.37;;;;;;;-145.69;100.00;72648.25;5053316;28;20214;-80
2022/10/06 04:55:02;;;;;;;8.48;3.83;;;;;;;-145.69;100.00;72640.28;5054144;28;20435;-80
2022/10/06 04:57:28;;;;;;;7.97;3.37;;;;;;;-145.69;100.00;72640.28;5073363;28;20603;-80
2022/10/06 05:02:39;;;;;;;11.53;3.40;;;;;;;-145.69;100.00;72640.28;5048945;28;20569;-79
2022/10/06 05:05:07;;;;;;;13.53;3.80;;;;;;;-145.69;100.00;72640.28;5053279;28;20203;-79
2022/10/06 05:07:34;;;;;;;7.40;3.70;;;;;;;-145.69;100.00;72664.16;5073445;28;20205;-80
2022/10/06 05:10:00;;;;;;;11.10;3.50;;;;;;;-145.69;100.00;72658.19;5073579;28;20210;-80
2022/10/06 05:12:29;;;;;;;11.23;3.87;;;;;;;-145.69;100.00;72642.28;5073448;28;20556;-80
2022/10/06 05:14:55;;;;;;;6.53;3.10;;;;;;;-145.69;100.00;72648.25;5075296;28;20194;-80
2022/10/06 05:17:22;;;;;;;8.00;3.00;;;;;;;-145.69;100.00;72656.22;5073385;28;20234;-80
2022/10/06 05:19:48;;;;;;;8.30;3.50;;;;;;;-145.69;100.00;72648.25;5033960;28;20290;-80
2022/10/06 05:22:16;;;;;;;8.70;4.07;;;;;;;-145.69;100.00;72620.38;5035024;28;20204;-81
2022/10/06 05:24:43;;;;;;;9.10;3.80;;;;;;;-145.69;100.00;72612.41;5034897;28;20204;-80
2022/10/06 05:27:09;;;;;;;6.67;3.43;;;;;;;-145.69;100.00;72608.44;5033117;28;20231;-80
2022/10/06 05:29:36;;;;;;;7.73;3.77;;;;;;;-145.69;100.00;72616.41;5036241;28;20216;-80
2022/10/06 05:32:03;;;;;;;9.90;4.13;;;;;;;-145.69;100.00;72618.38;5053939;28;20699;-81
2022/10/06 05:34:30;;;;;;;10.43;3.93;;;;;;;-145.69;100.00;72630.31;5053576;28;20206;-80
2022/10/06 05:36:56;;;;;;;10.80;3.57;;;;;;;-145.69;100.00;72624.34;5055291;28;20207;-81
2022/10/06 05:39:24;;;;;;;7.67;3.73;;;;;;;-145.69;100.00;72628.34;5056971;28;20206;-80
2022/10/06 05:41:51;;;;;;;18.40;4.80;;;;;;;-145.69;100.00;72640.28;5055811;28;20294;-80
2022/10/06 05:44:18;;;;;;;14.63;4.10;;;;;;;-145.69;100.00;72648.25;5034001;28;20223;-80
2022/10/06 05:46:44;;;;;;;10.80;4.37;;;;;;;-145.69;100.00;72656.22;5034271;28;20208;-80
2022/10/06 05:49:11;;;;;;;9.23;4.20;;;;;;;-145.69;100.00;72660.19;5035138;28;20204;-80
2022/10/06 05:51:39;;;;;;;16.47;4.00;;;;;;;-145.69;100.00;72656.22;5034587;28;20562;-80
2022/10/06 05:54:09;;;;;;;12.43;4.80;;;;;;;-145.69;100.00;72656.22;5040653;28;20223;-80
2022/10/06 05:56:38;;;;;;;9.87;4.73;;;;;;;-145.69;100.00;72648.25;5074246;28;20230;-80
2022/10/06 05:59:05;;;;;;;7.13;4.13;;;;;;;-145.69;100.00;72656.22;5073399;28;20557;-80
2022/10/06 06:01:33;;;;;;;12.67;4.67;;;;;;;-145.69;100.00;72648.25;5074761;28;20214;-80
2022/10/06 06:04:02;;;;;;;9.20;4.40;;;;;;;-145.69;100.00;72640.28;5074439;28;20611;-80
2022/10/06 06:06:30;;;;;;;9.97;4.87;;;;;;;-145.69;100.00;72628.34;5066942;28;20192;-80
2022/10/06 06:08:59;;;;;;;9.63;4.10;;;;;;;-145.69;100.00;72628.34;5054092;28;20642;-80
2022/10/06 06:11:26;;;;;;;8.00;4.40;;;;;;;-145.69;100.00;72620.38;5053963;28;20203;-80
2022/10/06 06:13:56;;;;;;;11.27;4.20;;;;;;;-145.69;100.00;72616.41;5053523;28;20207;-80
2022/10/06 06:16:22;;;;;;;18.07;4.13;;;;;;;-145.69;100.00;72600.47;5053047;28;20653;-80
2022/10/06 06:18:48;;;;;;;8.20;4.15;;;;;;;-145.69;100.00;72584.56;5053975;28;20454;-80
2022/10/06 06:21:15;;;;;;;11.67;4.33;;;;;;;-145.69;100.00;72556.69;5053786;28;20196;-80
2022/10/06 06:23:45;;;;;;;6.13;3.70;;;;;;;-145.69;100.00;72536.78;5053416;28;20620;-80
2022/10/06 06:26:14;;;;;;;10.02;4.22;;;;;;;-145.69;100.00;72504.94;5052843;28;20243;-80
2022/10/06 06:28:41;;;;;;;8.80;4.00;;;;;;;-145.69;100.00;72504.94;5053365;28;20204;-80
2022/10/06 06:31:10;;;;;;;8.00;3.70;;;;;;;-145.69;100.00;72493.00;5063439;28;20206;-80
2022/10/06 06:33:39;;;;;;;6.77;3.43;;;;;;;-145.69;100.00;72489.00;5073076;28;20199;-80
2022/10/06 06:36:12;;;;;;;6.07;3.28;;;;;;;-145.69;100.00;72465.13;5072322;28;20198;-80
2022/10/06 06:38:39;;;;;;;6.93;3.08;;;;;;;-145.69;100.00;72457.16;5073718;28;20195;-79
2022/10/06 06:41:13;;;;;;;5.03;2.85;;;;;;;-145.69;100.00;72409.38;5075828;28;20290;-79
2022/10/06 06:43:40;;;;;;;6.85;3.47;;;;;;;-145.69;100.00;72387.50;5062356;28;20222;-80
2022/10/06 06:46:06;;;;;;;5.22;3.28;;;;;;;-145.69;100.00;72365.59;5055564;28;20199;-80
2022/10/06 06:48:36;;;;;;;4.72;2.70;;;;;;;-145.69;100.00;72357.66;5055714;28;20195;-77
2022/10/06 06:51:03;;;;;;;9.55;2.60;;;;;;;-145.69;100.00;72341.72;5055435;28;20199;-77
2022/10/06 06:53:30;;;;;;;4.32;2.38;;;;;;;-145.69;100.00;72333.75;5055331;28;20199;-80
2022/10/06 06:55:57;;;;;;;7.05;2.03;;;;;;;-145.69;100.00;72331.78;5071022;28;20218;-79
2022/10/06 06:58:24;;;;;;;4.53;2.55;;;;;;;-145.69;100.00;72303.91;5075304;28;20683;-78
2022/10/06 07:00:50;;;;;;;4.70;2.63;;;;;;;-145.69;100.00;72272.06;5075321;28;20202;-77
2022/10/06 07:03:18;;;;;;;6.70;2.60;;;;;;;-145.69;100.00;72242.22;5065240;28;20219;-77
2022/10/06 07:05:47;;;;;;;6.80;2.60;;;;;;;-145.69;100.00;72230.25;5035326;28;20196;-77
2022/10/06 07:08:14;;;;;;;6.60;2.38;;;;;;;-145.69;100.00;72210.38;5070498;28;20464;-78
2022/10/06 07:10:43;;;;;;;4.68;2.08;;;;;;;-145.69;100.00;72204.38;5075249;28;20205;-78
2022/10/06 07:13:13;;;;;;;3.85;2.22;;;;;;;-145.69;100.00;72206.38;5075130;28;20211;-77
2022/10/06 07:26:39;;;;;;;3.58;2.10;;;;;;;-145.69;100.00;72146.69;5054841;28;20700;-77
2022/10/06 07:29:05;;;;;;;6.78;2.65;;;;;;;-145.69;100.00;72142.69;5055040;28;20562;-77
2022/10/06 07:31:34;;;;;;;5.78;2.63;;;;;;;-145.69;100.00;72124.78;5063420;28;20661;-77
2022/10/06 07:34:02;;;;;;;14.13;5.20;;;;;;;-145.69;100.00;72096.91;5074896;28;20626;-77
2022/10/06 07:36:31;;;;;;;15.98;5.82;;;;;;;-145.69;100.00;72102.88;5074589;28;20602;-77
2022/10/06 07:38:58;;;;;;;16.58;7.20;;;;;;;-145.69;100.00;72104.88;5072963;28;20203;-77
2022/10/06 07:41:24;;;;;;;17.67;5.85;;;;;;;-145.69;100.00;72094.94;5074737;28;20195;-78
2022/10/06 07:43:52;;;;;;;10.10;3.13;;;;;;;-145.69;100.00;72116.81;5074677;28;20222;-80
2022/10/06 07:46:19;;;;;;;10.52;3.65;;;;;;;-145.69;100.00;72102.88;5074582;28;20447;-80
2022/10/06 07:48:47;;;;;;;4.18;2.40;;;;;;;-145.69;100.00;72118.81;5071326;28;20203;-79
2022/10/06 07:51:15;;;;;;;11.48;2.80;;;;;;;-145.69;100.00;72122.78;5054713;28;20200;-77
2022/10/06 07:53:49;;;;;;;4.97;2.30;;;;;;;-145.69;100.00;72106.88;5055475;28;20223;-80
2022/10/06 07:56:19;;;;;;;4.75;2.50;;;;;;;-145.69;100.00;72132.75;5056227;28;20287;-80
2022/10/06 07:58:46;;;;;;;6.90;2.55;;;;;;;-145.69;100.00;72126.78;5056034;28;20235;-80
2022/10/06 08:01:14;;;;;;;7.40;2.70;;;;;;;-145.69;100.00;72130.75;5061011;28;20194;-79
2022/10/06 08:03:43;;;;;;;6.57;2.65;;;;;;;-145.69;100.00;72140.69;5063278;28;20223;-79
2022/10/06 08:06:12;;;;;;;6.28;2.67;;;;;;;-145.69;100.00;72142.69;5055462;28;20290;-79
2022/10/06 08:08:39;;;;;;;4.38;2.00;;;;;;;-145.69;100.00;72122.78;5055998;28;20593;-81
2022/10/06 08:11:08;;;;;;;9.55;2.70;;;;;;;-145.69;100.00;72126.78;5055874;28;20886;-78
2022/10/06 08:13:35;;;;;;;3.38;2.17;;;;;;;-145.69;100.00;72122.78;5065026;28;20217;-77
2022/10/06 08:16:04;;;;;;;5.63;2.33;;;;;;;-145.69;100.00;72112.84;5073872;28;20683;-78
2022/10/06 08:18:31;;;;;;;6.38;2.70;;;;;;;-145.69;100.00;72086.97;5073596;28;20317;-79
2022/10/06 08:20:58;;;;;;;7.22;2.50;;;;;;;-145.69;100.00;72055.13;5073851;28;20641;-79
2022/10/06 08:23:24;;;;;;;8.25;2.85;;;;;;;-145.69;100.00;72047.16;5073935;28;20203;-76
2022/10/06 08:25:53;;;;;;;8.65;2.90;;;;;;;-145.69;100.00;71981.50;5062501;28;20565;-76
2022/10/06 08:28:21;;;;;;;12.95;2.70;;;;;;;-145.69;100.00;71969.53;5053780;28;20400;-76
2022/10/06 08:30:48;;;;;;;4.93;2.67;;;;;;;-145.69;100.00;71987.47;5053521;28;20199;-76
2022/10/06 08:33:17;;;;;;;4.10;2.50;;;;;;;-145.69;100.00;72025.28;5053434;28;20234;-76
2022/10/06 08:35:43;;;;;;;8.30;2.28;;;;;;;-145.69;100.00;72071.03;5060018;28;20560;-79
2022/10/06 08:38:11;;;;;;;6.22;2.40;;;;;;;-145.69;100.00;72065.06;5073527;28;20203;-77
2022/10/06 08:40:37;;;;;;;11.43;2.80;;;;;;;-145.69;100.00;72096.91;5073532;28;20264;-77
2022/10/06 08:43:13;;;;;;;5.72;2.45;;;;;;;-145.69;100.00;72086.97;5068693;28;20192;-78
2022/10/06 08:45:44;;;;;;;8.85;2.78;;;;;;;-145.69;100.00;72053.13;5059074;28;20281;-77
2022/10/06 08:48:14;;;;;;;11.02;2.50;;;;;;;-145.69;100.00;72065.06;5073306;28;20195;-79
2022/10/06 08:50:56;;;;;;;8.00;2.90;;;;;;;-145.69;100.00;72053.13;5073242;28;20195;-79
2022/10/06 08:53:30;;;;;;;8.38;3.13;;;;;;;-145.69;100.00;72027.25;5066484;28;20199;-77
2022/10/06 08:56:03;;;;;;;6.45;2.97;;;;;;;-145.69;100.00;71983.47;5053255;28;20235;-78
2022/10/06 08:58:43;;;;;;;12.93;3.20;;;;;;;-145.69;100.00;71957.59;5053346;28;20654;-77
2022/10/06 09:01:18;;;;;;;5.47;2.88;;;;;;;-145.69;100.00;72031.25;5052602;28;20202;-78
2022/10/06 09:03:47;;;;;;;7.03;3.00;;;;;;;-145.69;100.00;71953.63;5051269;28;20226;-77
2022/10/06 09:06:22;;;;;;;3.80;2.70;;;;;;;-145.69;100.00;71933.72;5065968;28;20217;-78
2022/10/06 09:08:57;;;;;;;7.45;2.58;;;;;;;-145.69;100.00;71947.66;5073021;28;20202;-77
2022/10/06 09:11:44;;;;;;;6.10;2.83;;;;;;;-145.69;100.00;71951.63;5072959;28;20213;-77
2022/10/06 09:14:17;;;;;;;6.97;2.95;;;;;;;-145.69;100.00;71907.84;5072983;28;20234;-78
2022/10/06 09:16:50;;;;;;;6.82;2.38;;;;;;;-145.69;100.00;71975.50;5067496;28;20231;-78
2022/10/06 09:19:21;;;;;;;9.02;3.55;;;;;;;-145.69;100.00;71975.50;5052805;28;20203;-78
2022/10/06 09:21:51;;;;;;;7.18;2.90;;;;;;;-145.69;100.00;71953.63;5052958;28;20195;-77
2022/10/06 09:24:28;;;;;;;9.77;3.63;;;;;;;-145.69;100.00;72009.34;5052694;28;20322;-78
2022/10/06 09:26:59;;;;;;;5.75;2.80;;;;;;;-145.69;100.00;72051.16;5052739;28;20249;-77
2022/10/06 09:29:30;;;;;;;7.80;2.78;;;;;;;-145.69;100.00;72112.84;5064520;28;20199;-77
2022/10/06 09:31:58;;;;;;;5.68;2.90;;;;;;;-145.69;100.00;72106.88;5073061;28;20205;-77
2022/10/06 09:34:33;;;;;;;6.82;2.78;;;;;;;-145.69;100.00;72112.84;5072959;28;20523;-77
2022/10/06 09:37:02;;;;;;;5.55;2.75;;;;;;;-145.69;100.00;72106.88;5072912;28;20259;-77
2022/10/06 09:39:35;;;;;;;9.00;2.72;;;;;;;-145.69;100.00;72102.88;5072750;28;20210;-77
2022/10/06 09:42:03;;;;;;;7.88;3.10;;;;;;;-145.69;100.00;72160.59;5056151;28;20202;-77
2022/10/06 09:44:35;;;;;;;10.90;3.38;;;;;;;-145.69;100.00;72166.56;5052717;28;20227;-77
2022/10/06 09:47:23;;;;;;;7.75;3.22;;;;;;;-145.69;100.00;72180.50;5052578;28;20716;-77
2022/10/06 09:50:02;;;;;;;6.07;3.10;;;;;;;-145.69;100.00;72174.53;5052675;28;20210;-77
2022/10/06 09:52:29;;;;;;;9.02;3.35;;;;;;;-145.69;100.00;72184.50;5057764;28;20189;-77
2022/10/06 09:55:05;;;;;;;9.80;3.13;;;;;;;-145.69;100.00;72192.44;5072775;28;20234;-78
2022/10/06 09:57:33;;;;;;;11.10;3.08;;;;;;;-145.69;100.00;72186.47;5072700;28;20294;-77
2022/10/06 10:00:01;;;;;;;8.50;3.17;;;;;;;-145.69;100.00;72204.38;5072563;28;20206;-77
2022/10/06 10:02:35;;;;;;;8.40;2.83;;;;;;;-145.69;100.00;72200.41;5072537;28;20623;-77
2022/10/06 10:05:05;;;;;;;7.68;2.80;;;;;;;-145.69;100.00;72210.38;5062960;28;20250;-78
2022/10/06 10:07:35;;;;;;;7.93;2.22;;;;;;;-145.69;100.00;72222.31;5052561;28;20210;-77
2022/10/06 10:10:20;;;;;;;9.60;2.78;;;;;;;-145.69;100.00;72200.41;5052542;28;20295;-77
2022/10/06 10:12:51;;;;;;;6.35;2.58;;;;;;;-145.69;100.00;72202.41;5052777;28;20210;-77
2022/10/06 10:15:28;;;;;;;4.97;2.03;;;;;;;-145.69;100.00;72206.38;5056008;28;20203;-77
2022/10/06 10:17:58;;;;;;;6.05;2.55;;;;;;;-145.69;100.00;72218.31;5070196;28;20320;-77
2022/10/06 10:20:35;;;;;;;4.53;2.00;;;;;;;-145.69;100.00;72206.38;5075995;28;20203;-77
2022/10/06 10:23:06;;;;;;;6.13;2.17;;;;;;;-145.69;100.00;72170.56;5076025;28;20205;-77
2022/10/06 10:25:57;;;;;;;5.50;2.55;;;;;;;-145.69;100.00;72196.44;5074446;28;20928;-77
2022/10/06 10:28:38;;;;;;;6.85;2.63;;;;;;;-145.69;100.00;72178.53;5075462;28;20199;-77
2022/10/06 10:31:15;;;;;;;5.97;2.20;;;;;;;-145.69;100.00;72190.47;5056035;28;20226;-77
2022/10/06 10:33:50;;;;;;;8.57;2.90;;;;;;;-145.69;100.00;72218.31;5055509;28;20290;-77
2022/10/06 10:36:18;;;;;;;6.15;2.85;;;;;;;-145.69;100.00;72222.31;5055743;28;20187;-77
2022/10/06 10:38:46;;;;;;;12.60;2.40;;;;;;;-145.69;100.00;72218.31;5055861;28;20745;-77
2022/10/06 10:41:18;;;;;;;9.40;2.25;;;;;;;-145.69;100.00;72226.28;5064615;28;20195;-78
2022/10/06 10:43:50;;;;;;;4.30;2.35;;;;;;;-145.69;100.00;72190.47;5075780;28;20207;-78
2022/10/06 10:46:24;;;;;;;9.63;2.30;;;;;;;-145.69;100.00;72154.63;5075426;28;20669;-77
2022/10/06 10:48:57;;;;;;;6.38;2.15;;;;;;;-145.69;100.00;72142.69;5075812;28;20213;-78
2022/10/06 10:51:28;;;;;;;15.57;3.13;;;;;;;-145.69;100.00;72180.50;5075655;28;20379;-78
2022/10/06 10:54:00;;;;;;;8.38;2.30;;;;;;;-145.69;100.00;72194.44;5061676;28;20203;-78
2022/10/06 10:56:27;;;;;;;8.00;2.40;;;;;;;-145.69;100.00;72188.47;5055319;28;20665;-78
2022/10/06 10:59:00;;;;;;;5.15;2.10;;;;;;;-145.69;100.00;72126.78;5055113;28;20662;-78
2022/10/06 11:01:32;;;;;;;6.47;1.92;;;;;;;-145.69;100.00;72128.75;5044199;28;20228;-78
2022/10/06 11:04:01;;;;;;;3.67;2.25;;;;;;;-145.69;100.00;72011.34;5035220;28;20207;-78
2022/10/06 11:06:48;;;;;;;7.22;2.45;;;;;;;-145.69;100.00;71955.63;5074666;28;20199;-78
2022/10/06 11:09:18;;;;;;;10.15;2.58;;;;;;;-145.69;100.00;71923.78;5075002;28;20198;-78
2022/10/06 11:11:57;;;;;;;8.55;2.38;;;;;;;-145.69;100.00;71808.34;5075271;28;20198;-78
2022/10/06 11:14:41;;;;;;;15.25;3.50;;;;;;;-145.69;100.00;71913.81;5072945;28;20209;-77
2022/10/06 11:17:22;;;;;;;6.43;3.25;;;;;;;-145.69;100.00;71917.81;5054869;28;20235;-78
2022/10/06 11:19:57;;;;;;;7.35;2.78;;;;;;;-145.69;100.00;71802.38;5054953;28;20210;-78
2022/10/06 11:22:35;;;;;;;10.05;3.35;;;;;;;-145.69;95.32;71724.75;5055067;28;20207;-78
2022/10/06 11:25:15;;;;;;;11.55;3.97;;;;;;;-145.69;95.34;71760.59;5054304;28;20227;-78
2022/10/06 11:27:52;;;;;;;10.38;4.22;;;;;;;-145.69;100.00;71826.25;5068389;28;20252;-78
2022/10/06 11:30:25;;;;;;;8.70;4.20;;;;;;;-145.69;100.00;71732.72;5074928;28;20237;-78